Ban Huai Yang Dong, Thailand

12:20 PM +07 on July 23, 2017 (GMT +0700)
Khon Kaen | | Change Station

Elev 541 ft 16.43 °N, 102.83 °E | Updated 20 minutes ago

Rain
Rain
84 °F
Feels Like 96 °F
N
5
Wind Variable Wind from NW

Today
High -- | Low -- °F
--% Chance of Precip.
Yesterday
High -- | Low -- °F
Precip. -- in
Pressure 29.77 in
Visibility 6.2 miles
Clouds Few 1000 ft
Scattered Clouds 2000 ft
Mostly Cloudy 10000 ft
Heat Index 96 °F
Dew Point 79 °F
Humidity 84%
Rainfall 0.00 in
Snow Depth Not available.
5:44 AM 6:42 PM
Waning Crescent, 0% visible
METAR VTUK 230500Z 32004KT 270V010 9999 FEW010 SCT020 BKN100 29/26 Q1008 NOSIG
Pressure 29.77 in
Visibility 6.2 miles
Clouds Few 1000 ft
Scattered Clouds 2000 ft
Mostly Cloudy 10000 ft
Heat Index 96 °F
Dew Point 79 °F
Humidity 84%
Rainfall 0.00 in
Snow Depth Not available.
5:44 AM 6:42 PM
Waning Crescent, 0% visible
METAR VTUK 230500Z 32004KT 270V010 9999 FEW010 SCT020 BKN100 29/26 Q1008 NOSIG

Get Severe Weather Alerts

Thanks for signing up!

Be on the lookout for a verification email in your inbox.

You'll start receiving the daily forecast at 6 AM.

×

10-Day Weather Forecast

No radar image for this location.
×

Almanac

Astronomy

Jul. 23, 2017 Rise Set
Actual Time
Civil Twilight
Nautical Twilight
Astronomical Twilight
Moon
Length of Visible Light
Length of Day
Tomorrow will be .
, % of the Moon is Illuminated

Today's Extremes

Country Highs Country Lows

Community

WunderPhotos

Category 6

Welcome to Category 6. This is the collective home for Weather Underground's featured writeups by Dr. Jeff Masters (right), Bob Henson (left), Chris Burt, and other regular contributors.

Nearby

Air Quality

  Air Quality AQ Index Pollutant
Not available.

Snow Depth

Station Depth Elevation

Earthquake Activity

City Distance Mag. Time & Date
Minimum magnitude displayed is 2.5.

Coastal Water Temperatures

Place Temperature

Stations

Nearby Weather Stations

Station Location Temp. Windchill Dew Point Humidity Wind Precip. Elev Updated Type